Ana Sayfa
METAR-TAF:

METAR-TAF

Havaalanları :

First Flight Airport

Kill Devil Hills, Kuzey Carolina, Amerika Birleşik Devletleri

Enlem: 36-01N, Boylam: 075-40W, yükseklik: 4 m

Güncel hava durumu gözlemi

Rapor saat 05:35 UTC de 1 saat ve 1 dakika önce yapıldı.
Rüzgar kuzeydan 11 kt ve 25 kt'a kadar ani rüzgarlar, kuzey/kuzeybatı ve kuzey/kuzeydoğu arasında değişken
Sıcaklık 2°C
Nem 100%
Basınç 1024 hPa
Görüş mesafesi: 8.0 km
600 ft yükseklikte çok bulutlu
hafif yağmur

METAR: KFFA 220535Z AUTO 36011G25KT 330V030 5SM -RA OVC006 02/02 A3023 RMK AO2 T00170015

Saat: 01:36 (06:36 UTC)


TAF: eksik

4.000'den fazla havaalanı için hava durumu gözlemleri ve tahminleri (METAR ve TAF raporları).

Kullanılabilir istasyonlar harita üzerinde sarı ve kırmızı noktalarla gösterilir.

İstasyonun adını görmek için fareyi noktanın üzerinde gezdirin.

Sonrasında hava gözlem ve tahminlerini görmek için tıklayın.

Haritayı değiştirmek için: yaklaştırmak için siyah artı işaretli yeşil düğmeye ve uzaklaştırmak için de eksi işaretli düğmeye hızla tıklayın; bitişik haritalar için yeşil okları kullanın.


METAR-TAF: